createdAt,value
2019-01-29T00:01:47.191Z,1.60
2019-01-29T00:05:51.961Z,1.80
2019-01-29T00:09:56.109Z,1.77
2019-01-29T00:14:00.198Z,2.53
2019-01-29T00:18:04.826Z,2.90
2019-01-29T00:22:08.645Z,1.90
2019-01-29T00:26:12.543Z,2.20
2019-01-29T00:30:16.642Z,2.13
2019-01-29T00:34:23.037Z,2.13
2019-01-29T00:38:27.057Z,1.77
2019-01-29T00:42:30.975Z,2.17
2019-01-29T00:46:35.077Z,1.93
2019-01-29T00:50:38.975Z,1.90
2019-01-29T00:54:42.842Z,2.70
2019-01-29T00:58:46.735Z,1.97
2019-01-29T01:02:50.674Z,2.90
2019-01-29T01:06:54.733Z,1.77
2019-01-29T01:10:58.693Z,1.97
2019-01-29T01:15:02.582Z,1.80
2019-01-29T01:19:06.433Z,2.20
2019-01-29T01:23:10.518Z,1.50
2019-01-29T01:27:14.359Z,1.23
2019-01-29T01:31:20.157Z,1.53
2019-01-29T01:35:24.157Z,1.73
2019-01-29T01:39:28.146Z,1.47
2019-01-29T01:43:32.013Z,1.70
2019-01-29T01:47:35.875Z,1.50
2019-01-29T01:51:42.274Z,1.63
2019-01-29T01:55:46.163Z,1.67
2019-01-29T01:59:50.103Z,1.53
2019-01-29T02:03:53.998Z,1.67
2019-01-29T02:07:57.918Z,1.67
2019-01-29T02:12:01.902Z,1.33
2019-01-29T02:16:05.796Z,1.47
2019-01-29T02:20:10.124Z,1.80
2019-01-29T02:24:14.003Z,1.60
2019-01-29T02:28:17.925Z,1.43
2019-01-29T02:32:21.863Z,1.53
2019-01-29T02:36:26.098Z,1.63
2019-01-29T02:40:30.070Z,1.50
2019-01-29T02:44:33.963Z,1.50
2019-01-29T02:48:38.005Z,1.77
2019-01-29T02:52:41.848Z,1.50
2019-01-29T02:56:45.849Z,1.43
2019-01-29T03:00:49.787Z,1.73
2019-01-29T03:04:53.889Z,1.60
2019-01-29T03:08:57.788Z,1.47
2019-01-29T03:13:01.837Z,1.37
2019-01-29T03:17:05.764Z,1.70
2019-01-29T03:21:09.805Z,1.73
2019-01-29T03:25:13.718Z,1.60
2019-01-29T03:29:17.683Z,1.40
2019-01-29T03:33:21.710Z,1.57
2019-01-29T03:37:25.879Z,1.43
2019-01-29T03:41:29.798Z,1.77
2019-01-29T03:45:33.951Z,1.70
2019-01-29T03:49:37.851Z,1.50
2019-01-29T03:53:41.713Z,1.43
2019-01-29T03:57:45.747Z,1.70
2019-01-29T04:01:49.900Z,1.63
2019-01-29T04:05:53.954Z,1.60
2019-01-29T04:09:57.928Z,1.97
2019-01-29T04:14:01.821Z,1.70
2019-01-29T04:18:06.034Z,1.80
2019-01-29T04:22:10.131Z,1.70
2019-01-29T04:26:14.031Z,2.07
2019-01-29T04:30:18.969Z,1.90
2019-01-29T04:34:23.991Z,2.00
2019-01-29T04:38:27.908Z,1.60
2019-01-29T04:42:31.906Z,1.50
2019-01-29T04:46:36.021Z,1.93
2019-01-29T04:50:39.993Z,1.77
2019-01-29T04:54:44.154Z,1.70
2019-01-29T04:58:48.143Z,1.90
2019-01-29T05:02:52.122Z,1.63
2019-01-29T05:06:57.119Z,1.67
2019-01-29T05:11:01.062Z,1.87
2019-01-29T05:15:05.334Z,1.70
2019-01-29T05:19:09.166Z,2.07
2019-01-29T05:23:13.348Z,1.97
2019-01-29T05:27:17.581Z,1.80
2019-01-29T05:31:22.611Z,1.97
2019-01-29T05:35:26.443Z,1.63
2019-01-29T05:39:30.323Z,1.70
2019-01-29T05:43:34.304Z,1.90
2019-01-29T05:47:38.315Z,1.90
2019-01-29T05:51:42.212Z,2.03
2019-01-29T05:55:46.229Z,1.80
2019-01-29T05:59:50.255Z,2.03
2019-01-29T06:03:54.434Z,1.77
2019-01-29T06:07:58.359Z,1.90
2019-01-29T06:12:02.366Z,1.53
2019-01-29T06:16:06.389Z,1.87
2019-01-29T06:20:12.391Z,2.10
2019-01-29T06:24:25.272Z,1.80
2019-01-29T06:28:22.312Z,1.93
2019-01-29T06:32:26.280Z,1.80
2019-01-29T06:36:30.135Z,1.87
2019-01-29T06:40:34.094Z,1.77
2019-01-29T06:44:38.114Z,1.73
2019-01-29T06:48:42.045Z,2.10
2019-01-29T06:52:45.950Z,2.10
2019-01-29T06:56:50.034Z,2.10
2019-01-29T07:00:54.015Z,2.00
2019-01-29T07:04:58.103Z,2.30
2019-01-29T07:09:02.018Z,1.90
2019-01-29T07:13:07.097Z,1.93
2019-01-29T07:17:21.759Z,1.63
2019-01-29T07:21:25.754Z,1.93
2019-01-29T07:25:29.769Z,1.70
2019-01-29T07:29:33.715Z,2.53
2019-01-29T07:33:37.640Z,2.00
2019-01-29T07:37:42.955Z,2.97
2019-01-29T07:41:46.808Z,2.60
2019-01-29T07:45:50.828Z,2.63
2019-01-29T07:49:54.754Z,2.43
2019-01-29T07:53:58.687Z,2.33
2019-01-29T07:58:02.749Z,2.83
2019-01-29T08:02:06.738Z,3.10
2019-01-29T08:06:10.544Z,2.50
2019-01-29T08:10:15.711Z,2.53
2019-01-29T08:14:19.635Z,2.60
2019-01-29T08:18:23.621Z,2.90
2019-01-29T08:22:27.564Z,2.90
2019-01-29T08:26:32.589Z,3.00
2019-01-29T08:30:36.631Z,2.97
2019-01-29T08:34:40.540Z,3.27
2019-01-29T08:38:44.536Z,3.50
2019-01-29T08:42:48.726Z,3.47
2019-01-29T08:46:52.872Z,3.60
2019-01-29T08:50:56.689Z,2.90
2019-01-29T08:55:00.813Z,3.30
2019-01-29T08:59:04.710Z,3.10
2019-01-29T09:03:08.590Z,3.03
2019-01-29T09:07:12.516Z,3.70
2019-01-29T09:11:16.766Z,4.53
2019-01-29T09:15:20.735Z,5.37
2019-01-29T09:19:24.987Z,3.90
2019-01-29T09:23:28.884Z,3.10
2019-01-29T09:27:32.815Z,3.10
2019-01-29T09:31:36.688Z,3.60
2019-01-29T09:35:41.893Z,3.03
2019-01-29T09:39:45.877Z,3.33
2019-01-29T09:43:49.848Z,3.20
2019-01-29T09:47:53.770Z,3.53
2019-01-29T09:51:57.714Z,2.93
2019-01-29T09:56:01.703Z,2.63
2019-01-29T10:00:06.793Z,2.63
2019-01-29T10:04:10.756Z,2.50
2019-01-29T10:08:14.691Z,3.10
2019-01-29T10:12:18.610Z,3.00
2019-01-29T10:16:22.522Z,2.57
2019-01-29T10:20:26.443Z,2.70
2019-01-29T10:24:31.335Z,2.50
2019-01-29T10:28:35.335Z,2.47
2019-01-29T10:32:39.207Z,2.23
2019-01-29T10:36:44.578Z,1.97
2019-01-29T10:40:48.509Z,2.27
2019-01-29T10:44:52.611Z,2.20
2019-01-29T10:48:56.585Z,2.00
2019-01-29T10:53:00.507Z,2.07
2019-01-29T10:57:04.407Z,1.93
2019-01-29T11:01:08.551Z,2.00
2019-01-29T11:05:13.123Z,2.60
2019-01-29T11:09:25.395Z,2.33
2019-01-29T11:13:24.854Z,2.40
2019-01-29T11:17:28.968Z,2.30
2019-01-29T11:21:32.835Z,2.47
2019-01-29T11:25:36.927Z,2.47
2019-01-29T11:29:40.913Z,2.60
2019-01-29T11:33:44.979Z,2.27
2019-01-29T11:37:48.802Z,2.43
2019-01-29T11:41:52.690Z,2.30
2019-01-29T11:45:56.923Z,2.47
2019-01-29T11:50:00.936Z,2.57
2019-01-29T11:54:05.142Z,2.23
2019-01-29T11:58:09.005Z,2.80
2019-01-29T12:02:12.908Z,2.73
2019-01-29T12:06:16.958Z,2.53
2019-01-29T12:10:20.944Z,2.50
2019-01-29T12:14:24.730Z,2.70
2019-01-29T12:18:28.607Z,2.73
2019-01-29T12:22:32.571Z,2.60
2019-01-29T12:26:36.474Z,3.00
2019-01-29T12:30:40.356Z,2.97
2019-01-29T12:34:44.384Z,2.57
2019-01-29T12:38:48.330Z,2.50
2019-01-29T12:42:52.239Z,2.53
2019-01-29T12:46:56.239Z,2.83
2019-01-29T12:51:01.124Z,2.33
2019-01-29T12:55:05.435Z,2.20
2019-01-29T12:59:09.261Z,2.70
2019-01-29T13:03:13.180Z,2.47
2019-01-29T13:07:16.966Z,2.30
2019-01-29T13:11:20.925Z,2.20
2019-01-29T13:15:25.771Z,2.30
2019-01-29T13:19:29.763Z,2.23
2019-01-29T13:23:33.559Z,2.43
2019-01-29T13:27:37.491Z,2.20
2019-01-29T13:31:41.368Z,2.37
2019-01-29T13:35:45.270Z,2.50
2019-01-29T13:39:49.517Z,2.00
2019-01-29T13:43:53.611Z,3.00
2019-01-29T13:48:10.672Z,2.60
2019-01-29T13:52:14.678Z,2.60
2019-01-29T13:56:18.746Z,2.17
2019-01-29T14:00:24.274Z,2.10
2019-01-29T14:04:28.327Z,2.73
2019-01-29T14:08:32.495Z,2.90
2019-01-29T14:12:36.429Z,2.80
2019-01-29T14:16:40.487Z,2.20
2019-01-29T14:20:44.525Z,2.00
2019-01-29T14:24:48.631Z,2.00
2019-01-29T14:28:52.746Z,1.90
2019-01-29T14:32:56.817Z,2.17
2019-01-29T14:37:00.860Z,2.10
2019-01-29T14:41:04.988Z,2.00
2019-01-29T14:45:11.366Z,2.13
2019-01-29T14:49:15.293Z,2.10
2019-01-29T14:53:19.312Z,1.93
2019-01-29T14:57:23.400Z,2.40
2019-01-29T15:01:27.431Z,1.53
2019-01-29T15:05:31.293Z,2.40
2019-01-29T15:09:35.301Z,2.37
2019-01-29T15:13:39.259Z,2.57
2019-01-29T15:17:47.313Z,2.57
2019-01-29T15:21:51.242Z,2.40
2019-01-29T15:25:55.297Z,2.27
2019-01-29T15:29:59.169Z,2.50
2019-01-29T15:34:06.445Z,2.47
2019-01-29T15:38:10.521Z,2.20
2019-01-29T15:42:14.536Z,2.63
2019-01-29T15:46:18.420Z,2.53
2019-01-29T15:50:22.323Z,2.10
2019-01-29T15:54:26.419Z,1.83
2019-01-29T15:58:30.277Z,2.10
2019-01-29T16:02:34.179Z,2.17
2019-01-29T16:06:38.078Z,1.90
2019-01-29T16:10:41.941Z,2.53
2019-01-29T16:14:45.853Z,1.97
2019-01-29T16:18:49.682Z,1.97
2019-01-29T16:22:53.606Z,2.33
2019-01-29T16:26:57.450Z,2.73
2019-01-29T16:31:01.316Z,2.07
2019-01-29T16:35:06.405Z,1.93
2019-01-29T16:39:10.239Z,2.10
2019-01-29T16:43:14.206Z,2.77
2019-01-29T16:47:18.083Z,2.67
2019-01-29T16:51:22.068Z,2.67
2019-01-29T16:55:25.937Z,2.73
2019-01-29T16:59:29.812Z,2.40
2019-01-29T17:03:35.784Z,2.70
2019-01-29T17:07:57.476Z,2.47
2019-01-29T17:12:11.297Z,2.90
2019-01-29T17:16:15.251Z,2.33
2019-01-29T17:20:20.593Z,2.67
2019-01-29T17:24:24.465Z,3.03
2019-01-29T17:28:28.373Z,2.70
2019-01-29T17:32:32.298Z,3.00
2019-01-29T17:36:36.369Z,3.70
2019-01-29T17:40:40.129Z,3.83
2019-01-29T17:44:44.126Z,3.30
2019-01-29T17:48:48.240Z,3.30
2019-01-29T17:52:52.067Z,2.87
2019-01-29T17:56:56.004Z,2.50
2019-01-29T18:01:01.199Z,2.57
2019-01-29T18:05:05.187Z,2.63
2019-01-29T18:09:09.843Z,2.57
2019-01-29T18:13:13.665Z,2.27
2019-01-29T18:17:17.478Z,2.47
2019-01-29T18:21:21.350Z,2.13
2019-01-29T18:25:25.413Z,2.43
2019-01-29T18:29:29.404Z,2.63
2019-01-29T18:33:33.420Z,2.30
2019-01-29T18:37:37.343Z,2.17
2019-01-29T18:41:41.344Z,2.47
2019-01-29T18:45:45.390Z,2.33
2019-01-29T18:49:49.350Z,2.47
2019-01-29T18:53:53.325Z,4.60
2019-01-29T18:57:57.365Z,4.77
2019-01-29T19:02:01.393Z,3.43
2019-01-29T19:06:05.391Z,2.87
2019-01-29T19:10:10.105Z,3.10
2019-01-29T19:14:13.983Z,2.67
2019-01-29T19:18:18.033Z,2.07
2019-01-29T19:22:22.732Z,2.80
2019-01-29T19:26:26.689Z,2.37
2019-01-29T19:30:31.369Z,2.73
2019-01-29T19:34:35.563Z,3.07
2019-01-29T19:38:39.522Z,2.47
2019-01-29T19:42:43.467Z,2.33
2019-01-29T19:46:47.498Z,2.23
2019-01-29T19:50:51.497Z,2.10
2019-01-29T19:54:56.681Z,2.40
2019-01-29T19:59:00.713Z,2.20
2019-01-29T20:03:04.942Z,2.03
2019-01-29T20:07:09.128Z,2.30
2019-01-29T20:11:13.203Z,2.07
2019-01-29T20:15:17.665Z,2.00
2019-01-29T20:19:21.541Z,2.60
2019-01-29T20:23:25.379Z,2.27
2019-01-29T20:27:29.338Z,2.40
2019-01-29T20:31:33.136Z,2.17
2019-01-29T20:35:37.178Z,2.40
2019-01-29T20:39:41.130Z,2.07
2019-01-29T20:43:45.129Z,2.37
2019-01-29T20:47:49.193Z,2.47
2019-01-29T20:51:52.977Z,2.50
2019-01-29T20:55:56.844Z,2.20
2019-01-29T21:00:00.793Z,2.50
2019-01-29T21:04:05.121Z,1.93
2019-01-29T21:08:09.022Z,2.00
2019-01-29T21:12:13.035Z,2.00
2019-01-29T21:16:16.952Z,2.03
2019-01-29T21:20:21.809Z,2.37
2019-01-29T21:24:25.751Z,2.00
2019-01-29T21:28:29.662Z,2.03
2019-01-29T21:32:33.558Z,2.57
2019-01-29T21:36:38.587Z,2.40
2019-01-29T21:40:42.508Z,2.10
2019-01-29T21:44:46.554Z,2.40
2019-01-29T21:48:50.436Z,2.23
2019-01-29T21:52:54.297Z,2.33
2019-01-29T21:56:58.126Z,2.37
2019-01-29T22:01:02.138Z,2.47
2019-01-29T22:05:07.252Z,1.90
2019-01-29T22:09:11.140Z,2.50
2019-01-29T22:13:14.917Z,2.13
2019-01-29T22:17:18.978Z,2.30
2019-01-29T22:21:23.154Z,2.13
2019-01-29T22:25:27.161Z,2.10
2019-01-29T22:29:30.922Z,2.50
2019-01-29T22:33:34.842Z,2.40
2019-01-29T22:37:38.785Z,2.47
2019-01-29T22:41:42.718Z,2.30
2019-01-29T22:45:46.712Z,2.17
2019-01-29T22:49:50.586Z,2.20
2019-01-29T22:53:54.406Z,2.00
2019-01-29T22:57:58.193Z,2.40
2019-01-29T23:02:02.056Z,2.40
2019-01-29T23:06:08.402Z,2.40
2019-01-29T23:10:13.709Z,2.10
2019-01-29T23:14:17.694Z,2.20
2019-01-29T23:18:21.741Z,2.80
2019-01-29T23:22:25.654Z,2.30
2019-01-29T23:26:29.667Z,2.57
2019-01-29T23:30:33.449Z,2.23
2019-01-29T23:34:38.565Z,2.30
2019-01-29T23:38:42.382Z,2.40
2019-01-29T23:42:46.206Z,2.53
2019-01-29T23:46:50.292Z,2.73
2019-01-29T23:50:54.233Z,2.80
2019-01-29T23:54:58.194Z,2.30
2019-01-29T23:59:02.145Z,2.40
